createdAt,value
2018-04-10T00:00:10.529Z,21.80
2018-04-10T00:01:13.034Z,21.80
2018-04-10T00:02:15.551Z,21.80
2018-04-10T00:03:18.051Z,21.80
2018-04-10T00:04:21.331Z,21.80
2018-04-10T00:05:23.842Z,21.80
2018-04-10T00:06:26.338Z,21.80
2018-04-10T00:07:29.462Z,21.80
2018-04-10T00:08:32.753Z,21.80
2018-04-10T00:09:36.025Z,21.80
2018-04-10T00:10:38.531Z,21.70
2018-04-10T00:11:41.032Z,21.80
2018-04-10T00:12:43.542Z,21.70
2018-04-10T00:13:46.114Z,21.80
2018-04-10T00:14:48.674Z,21.70
2018-04-10T00:15:51.934Z,21.80
2018-04-10T00:16:54.522Z,21.70
2018-04-10T00:17:57.803Z,21.70
2018-04-10T00:19:01.497Z,21.70
2018-04-10T00:20:04.809Z,21.70
2018-04-10T00:21:07.368Z,21.70
2018-04-10T00:22:09.931Z,21.70
2018-04-10T00:23:12.502Z,21.70
2018-04-10T00:24:15.033Z,21.70
2018-04-10T00:25:18.341Z,21.70
2018-04-10T00:26:20.834Z,21.70
2018-04-10T00:27:23.338Z,21.70
2018-04-10T00:28:25.845Z,21.70
2018-04-10T00:29:28.374Z,21.70
2018-04-10T00:30:30.878Z,21.70
2018-04-10T00:31:33.399Z,21.70
2018-04-10T00:32:35.917Z,21.70
2018-04-10T00:33:38.416Z,21.70
2018-04-10T00:34:40.930Z,21.70
2018-04-10T00:35:43.432Z,21.70
2018-04-10T00:36:45.970Z,21.70
2018-04-10T00:37:48.469Z,21.70
2018-04-10T00:38:50.970Z,21.70
2018-04-10T00:39:54.251Z,21.70
2018-04-10T00:40:57.546Z,21.70
2018-04-10T00:42:00.801Z,21.70
2018-04-10T00:43:03.397Z,21.70
2018-04-10T00:44:06.678Z,21.60
2018-04-10T00:45:09.950Z,21.70
2018-04-10T00:46:12.552Z,21.70
2018-04-10T00:47:15.048Z,21.70
2018-04-10T00:48:17.684Z,21.70
2018-04-10T00:49:20.239Z,21.70
2018-04-10T00:50:22.754Z,21.70
2018-04-10T00:51:25.264Z,21.60
2018-04-10T00:52:28.523Z,21.70
2018-04-10T00:53:36.888Z,21.70
2018-04-10T00:54:39.404Z,21.70
2018-04-10T00:55:42.669Z,21.60
2018-04-10T00:56:45.186Z,21.70
2018-04-10T00:57:47.718Z,21.70
2018-04-10T00:58:50.991Z,21.60
2018-04-10T00:59:53.484Z,21.60
2018-04-10T01:00:55.990Z,21.60
2018-04-10T01:01:58.494Z,21.60
2018-04-10T01:03:01.776Z,21.60
2018-04-10T01:04:05.043Z,21.60
2018-04-10T01:05:07.663Z,21.60
2018-04-10T01:06:10.165Z,21.60
2018-04-10T01:07:12.702Z,21.60
2018-04-10T01:08:15.246Z,21.60
2018-04-10T01:09:17.792Z,21.60
2018-04-10T01:10:21.052Z,21.60
2018-04-10T01:11:23.657Z,21.60
2018-04-10T01:12:26.919Z,21.60
2018-04-10T01:13:29.501Z,21.60
2018-04-10T01:14:32.789Z,21.60
2018-04-10T01:15:36.057Z,21.60
2018-04-10T01:16:39.328Z,21.60
2018-04-10T01:17:41.849Z,21.60
2018-04-10T01:18:44.368Z,21.60
2018-04-10T01:19:46.867Z,21.60
2018-04-10T01:20:49.418Z,21.60
2018-04-10T01:21:52.695Z,21.60
2018-04-10T01:22:55.957Z,21.60
2018-04-10T01:23:58.505Z,21.60
2018-04-10T01:25:00.993Z,21.60
2018-04-10T01:26:04.268Z,21.60
2018-04-10T01:27:06.870Z,21.60
2018-04-10T01:28:10.131Z,21.60
2018-04-10T01:29:12.662Z,21.60
2018-04-10T01:30:15.177Z,21.60
2018-04-10T01:31:18.454Z,21.60
2018-04-10T01:32:21.721Z,21.60
2018-04-10T01:33:24.222Z,21.50
2018-04-10T01:34:26.775Z,21.60
2018-04-10T01:35:30.065Z,21.60
2018-04-10T01:36:34.266Z,21.60
2018-04-10T01:37:37.562Z,21.60
2018-04-10T01:38:40.078Z,21.50
2018-04-10T01:39:42.688Z,21.60
2018-04-10T01:40:45.979Z,21.50
2018-04-10T01:41:48.482Z,21.50
2018-04-10T01:42:50.977Z,21.50
2018-04-10T01:43:53.497Z,21.50
2018-04-10T01:44:55.997Z,21.50
2018-04-10T01:45:58.506Z,21.50
2018-04-10T01:47:01.009Z,21.50
2018-04-10T01:48:03.540Z,21.50
2018-04-10T01:49:06.029Z,21.50
2018-04-10T01:50:08.537Z,21.50
2018-04-10T01:51:11.118Z,21.50
2018-04-10T01:52:14.394Z,21.50
2018-04-10T01:53:17.738Z,21.50
2018-04-10T01:54:20.270Z,21.50
2018-04-10T01:55:22.810Z,21.50
2018-04-10T01:56:26.109Z,21.50
2018-04-10T01:57:28.670Z,21.50
2018-04-10T01:58:31.955Z,21.50
2018-04-10T01:59:34.457Z,21.50
2018-04-10T02:00:36.960Z,21.50
2018-04-10T02:01:39.477Z,21.50
2018-04-10T02:02:42.014Z,21.50
2018-04-10T02:03:45.284Z,21.50
2018-04-10T02:04:47.816Z,21.50
2018-04-10T02:05:50.326Z,21.50
2018-04-10T02:06:53.626Z,21.50
2018-04-10T02:07:56.184Z,21.50
2018-04-10T02:08:59.485Z,21.50
2018-04-10T02:10:01.994Z,21.50
2018-04-10T02:11:04.605Z,21.50
2018-04-10T02:12:07.104Z,21.50
2018-04-10T02:13:09.610Z,21.40
2018-04-10T02:14:12.133Z,21.50
2018-04-10T02:15:14.669Z,21.40
2018-04-10T02:16:17.167Z,21.50
2018-04-10T02:17:19.679Z,21.40
2018-04-10T02:18:22.229Z,21.40
2018-04-10T02:19:24.730Z,21.40
2018-04-10T02:20:27.304Z,21.40
2018-04-10T02:21:30.572Z,21.40
2018-04-10T02:22:33.082Z,21.40
2018-04-10T02:23:35.600Z,21.40
2018-04-10T02:24:38.857Z,21.40
2018-04-10T02:25:41.449Z,21.40
2018-04-10T02:26:44.713Z,21.40
2018-04-10T02:27:47.215Z,21.40
2018-04-10T02:28:49.728Z,21.40
2018-04-10T02:29:53.072Z,21.40
2018-04-10T02:30:55.643Z,21.40
2018-04-10T02:31:58.189Z,21.40
2018-04-10T02:33:00.749Z,21.40
2018-04-10T02:34:04.025Z,21.40
2018-04-10T02:35:07.339Z,21.40
2018-04-10T02:36:09.899Z,21.40
2018-04-10T02:37:12.485Z,21.40
2018-04-10T02:38:14.993Z,21.40
2018-04-10T02:39:17.601Z,21.40
2018-04-10T02:40:20.113Z,21.40
2018-04-10T02:41:22.644Z,21.40
2018-04-10T02:42:25.167Z,21.40
2018-04-10T02:43:27.768Z,21.40
2018-04-10T02:44:30.310Z,21.40
2018-04-10T02:45:33.605Z,21.40
2018-04-10T02:46:36.098Z,21.40
2018-04-10T02:47:38.600Z,21.40
2018-04-10T02:48:41.200Z,21.40
2018-04-10T02:49:43.778Z,21.40
2018-04-10T02:50:46.286Z,21.40
2018-04-10T02:51:48.819Z,21.40
2018-04-10T02:52:51.374Z,21.40
2018-04-10T02:53:53.937Z,21.40
2018-04-10T02:54:56.453Z,21.40
2018-04-10T02:55:58.981Z,21.40
2018-04-10T02:57:01.501Z,21.40
2018-04-10T02:58:04.028Z,21.40
2018-04-10T02:59:06.530Z,21.40
2018-04-10T03:00:09.040Z,21.40
2018-04-10T03:01:11.538Z,21.40
2018-04-10T03:02:14.070Z,21.40
2018-04-10T03:03:16.611Z,21.40
2018-04-10T03:04:19.893Z,21.40
2018-04-10T03:05:23.170Z,21.40
2018-04-10T03:06:26.459Z,21.40
2018-04-10T03:07:29.722Z,21.40
2018-04-10T03:08:32.245Z,21.40
2018-04-10T03:09:34.757Z,21.40
2018-04-10T03:10:37.254Z,21.40
2018-04-10T03:11:39.820Z,21.40
2018-04-10T03:12:42.345Z,21.40
2018-04-10T03:13:44.833Z,21.40
2018-04-10T03:14:48.090Z,21.40
2018-04-10T03:15:50.587Z,21.40
2018-04-10T03:16:53.873Z,21.40
2018-04-10T03:17:57.258Z,21.30
2018-04-10T03:18:59.795Z,21.40
2018-04-10T03:20:02.330Z,21.40
2018-04-10T03:21:04.868Z,21.30
2018-04-10T03:22:07.392Z,21.30
2018-04-10T03:23:09.927Z,21.40
2018-04-10T03:24:12.437Z,21.40
2018-04-10T03:25:14.931Z,21.40
2018-04-10T03:26:17.485Z,21.30
2018-04-10T03:27:20.754Z,21.40
2018-04-10T03:28:24.050Z,21.40
2018-04-10T03:29:27.325Z,21.30
2018-04-10T03:30:30.594Z,21.40
2018-04-10T03:31:33.123Z,21.30
2018-04-10T03:32:35.638Z,21.30
2018-04-10T03:33:38.927Z,21.30
2018-04-10T03:34:42.199Z,21.30
2018-04-10T03:35:44.698Z,21.30
2018-04-10T03:36:47.264Z,21.30
2018-04-10T03:37:49.757Z,21.30
2018-04-10T03:38:52.294Z,21.30
2018-04-10T03:39:54.807Z,21.30
2018-04-10T03:40:57.306Z,21.30
2018-04-10T03:41:59.808Z,21.30
2018-04-10T03:43:02.350Z,21.30
2018-04-10T03:44:04.911Z,21.30
2018-04-10T03:45:07.486Z,21.30
2018-04-10T03:46:10.010Z,21.30
2018-04-10T03:47:12.540Z,21.30
2018-04-10T03:48:15.046Z,21.30
2018-04-10T03:49:17.574Z,21.30
2018-04-10T03:50:20.082Z,21.30
2018-04-10T03:51:22.674Z,21.30
2018-04-10T03:52:25.172Z,21.30
2018-04-10T03:53:27.668Z,21.30
2018-04-10T03:54:30.166Z,21.30
2018-04-10T03:55:33.435Z,21.30
2018-04-10T03:56:36.752Z,21.30
2018-04-10T03:57:39.286Z,21.30
2018-04-10T03:58:42.547Z,21.30
2018-04-10T03:59:45.054Z,21.30
2018-04-10T04:00:47.613Z,21.30
2018-04-10T04:01:50.893Z,21.30
2018-04-10T04:02:54.177Z,21.30
2018-04-10T04:03:57.434Z,21.30
2018-04-10T04:04:59.934Z,21.30
2018-04-10T04:06:03.323Z,21.30
2018-04-10T04:07:05.820Z,21.30
2018-04-10T04:08:08.323Z,21.30
2018-04-10T04:09:10.860Z,21.30
2018-04-10T04:10:13.368Z,21.30
2018-04-10T04:11:16.676Z,21.30
2018-04-10T04:12:19.177Z,21.30
2018-04-10T04:13:21.682Z,21.30
2018-04-10T04:14:24.962Z,21.30
2018-04-10T04:15:28.254Z,21.30
2018-04-10T04:16:54.173Z,21.30
2018-04-10T04:17:56.683Z,21.30
2018-04-10T04:19:11.305Z,21.30
2018-04-10T04:20:25.884Z,21.30
2018-04-10T04:21:40.266Z,21.30
2018-04-10T04:22:42.758Z,21.30
2018-04-10T04:23:45.297Z,21.30
2018-04-10T04:24:48.577Z,21.30
2018-04-10T04:25:51.862Z,21.20
2018-04-10T04:26:55.163Z,21.30
2018-04-10T04:27:57.675Z,21.30
2018-04-10T04:29:00.178Z,21.30
2018-04-10T04:30:03.450Z,21.30
2018-04-10T04:31:06.001Z,21.20
2018-04-10T04:32:08.498Z,21.30
2018-04-10T04:33:11.800Z,21.30
2018-04-10T04:34:14.324Z,21.20
2018-04-10T04:35:16.841Z,21.30
2018-04-10T04:36:19.353Z,21.30
2018-04-10T04:37:21.880Z,21.20
2018-04-10T04:38:24.403Z,21.30
2018-04-10T04:39:27.666Z,21.30
2018-04-10T04:40:30.230Z,21.20
2018-04-10T04:41:32.726Z,21.20
2018-04-10T04:42:36.028Z,21.30
2018-04-10T04:43:38.550Z,21.20
2018-04-10T04:44:41.066Z,21.20
2018-04-10T04:45:43.628Z,21.20
2018-04-10T04:46:46.177Z,21.20
2018-04-10T04:47:48.677Z,21.20
2018-04-10T04:48:51.222Z,21.30
2018-04-10T04:49:53.739Z,21.20
2018-04-10T04:50:56.259Z,21.30
2018-04-10T04:51:58.819Z,21.20
2018-04-10T04:53:01.341Z,21.20
2018-04-10T04:54:03.867Z,21.30
2018-04-10T04:55:06.368Z,21.20
2018-04-10T04:56:08.865Z,21.30
2018-04-10T04:57:12.252Z,21.20
2018-04-10T04:58:15.523Z,21.30
2018-04-10T04:59:18.822Z,21.20
2018-04-10T05:00:21.401Z,21.20
2018-04-10T05:01:23.903Z,21.20
2018-04-10T05:02:26.455Z,21.30
2018-04-10T05:03:28.978Z,21.30
2018-04-10T05:04:32.253Z,21.30
2018-04-10T05:05:35.592Z,21.30
2018-04-10T05:06:38.130Z,21.20
2018-04-10T05:07:40.645Z,21.20
2018-04-10T05:08:43.138Z,21.30
2018-04-10T05:09:46.407Z,21.20
2018-04-10T05:10:48.918Z,21.20
2018-04-10T05:11:51.466Z,21.20
2018-04-10T05:12:53.988Z,21.30
2018-04-10T05:13:56.533Z,21.30
2018-04-10T05:14:59.177Z,21.20
2018-04-10T05:16:01.723Z,21.30
2018-04-10T05:17:05.018Z,21.20
2018-04-10T05:18:07.523Z,21.20
2018-04-10T05:19:10.065Z,21.20
2018-04-10T05:20:12.580Z,21.20
2018-04-10T05:21:15.107Z,21.20
2018-04-10T05:22:17.633Z,21.20
2018-04-10T05:23:20.901Z,21.20
2018-04-10T05:24:23.413Z,21.20
2018-04-10T05:25:25.939Z,21.20
2018-04-10T05:26:29.235Z,21.20
2018-04-10T05:27:32.509Z,21.20
2018-04-10T05:28:35.783Z,21.20
2018-04-10T05:29:38.296Z,21.20
2018-04-10T05:30:40.791Z,21.20
2018-04-10T05:31:43.407Z,21.20
2018-04-10T05:32:46.704Z,21.20
2018-04-10T05:33:49.252Z,21.20
2018-04-10T05:34:52.604Z,21.20
2018-04-10T05:35:55.117Z,21.20
2018-04-10T05:36:57.685Z,21.20
2018-04-10T05:38:00.212Z,21.20
2018-04-10T05:39:02.803Z,21.20
2018-04-10T05:40:06.073Z,21.20
2018-04-10T05:41:09.459Z,21.20
2018-04-10T05:42:12.727Z,21.20
2018-04-10T05:43:15.257Z,21.20
2018-04-10T05:44:17.759Z,21.20
2018-04-10T05:45:20.362Z,21.20
2018-04-10T05:46:23.806Z,21.20
2018-04-10T05:47:26.328Z,21.20
2018-04-10T05:48:28.911Z,21.20
2018-04-10T05:49:31.452Z,21.20
2018-04-10T05:50:33.961Z,21.20
2018-04-10T05:51:36.465Z,21.20
2018-04-10T05:52:39.726Z,21.20
2018-04-10T05:53:42.253Z,21.20
2018-04-10T05:54:44.750Z,21.20
2018-04-10T05:55:47.393Z,21.20
2018-04-10T05:56:49.898Z,21.20
2018-04-10T05:57:52.392Z,21.20
2018-04-10T05:58:55.328Z,21.00
2018-04-10T05:59:57.879Z,20.90
2018-04-10T06:02:09.683Z,20.60
2018-04-10T06:03:12.725Z,20.50
2018-04-10T06:04:15.304Z,20.30
2018-04-10T06:05:18.045Z,20.20
2018-04-10T06:06:20.782Z,20.20
2018-04-10T06:07:24.069Z,20.00
2018-04-10T06:08:27.714Z,20.00
2018-04-10T06:09:30.275Z,20.00
2018-04-10T06:10:32.806Z,19.90
2018-04-10T06:11:36.091Z,19.90
2018-04-10T06:12:39.350Z,19.80
2018-04-10T06:13:41.854Z,19.80
2018-04-10T06:14:44.366Z,19.80
2018-04-10T06:15:46.864Z,19.70
2018-04-10T06:16:50.268Z,19.70
2018-04-10T06:17:52.764Z,19.70
2018-04-10T06:18:55.254Z,19.80
2018-04-10T06:19:57.776Z,19.80
2018-04-10T06:21:00.293Z,19.80
2018-04-10T06:22:02.960Z,19.90
2018-04-10T06:23:05.466Z,20.00
2018-04-10T06:24:08.283Z,20.00
2018-04-10T06:25:10.799Z,20.00
2018-04-10T06:26:13.361Z,20.10
2018-04-10T06:27:16.656Z,20.10
2018-04-10T06:28:19.180Z,20.10
2018-04-10T06:29:22.582Z,20.10
2018-04-10T06:30:25.866Z,20.20
2018-04-10T06:31:29.136Z,20.20
2018-04-10T06:32:31.660Z,20.20
2018-04-10T06:33:34.196Z,20.20
2018-04-10T06:34:36.772Z,20.10
2018-04-10T06:35:39.290Z,20.20
2018-04-10T06:36:41.795Z,20.20
2018-04-10T06:37:44.285Z,20.20
2018-04-10T06:38:46.790Z,20.20
2018-04-10T06:39:49.275Z,20.10
2018-04-10T06:40:52.647Z,20.10
2018-04-10T06:41:55.154Z,20.10
2018-04-10T06:42:57.662Z,20.10
2018-04-10T06:44:00.262Z,20.10
2018-04-10T06:45:03.544Z,20.00
2018-04-10T06:46:06.117Z,20.00
2018-04-10T06:47:08.677Z,20.00
2018-04-10T06:48:12.085Z,20.10
2018-04-10T06:49:14.590Z,20.10
2018-04-10T06:50:17.102Z,20.10
2018-04-10T06:51:19.611Z,20.20
2018-04-10T06:52:22.106Z,20.20
2018-04-10T06:53:25.371Z,20.20
2018-04-10T06:54:27.869Z,20.20
2018-04-10T06:55:31.166Z,20.30
2018-04-10T06:56:33.728Z,20.20
2018-04-10T06:57:37.070Z,20.30
2018-04-10T06:58:40.423Z,20.30
2018-04-10T06:59:42.920Z,20.30
2018-04-10T07:00:45.419Z,20.30
2018-04-10T07:01:48.723Z,20.30
2018-04-10T07:02:51.306Z,20.40
2018-04-10T07:03:53.818Z,20.30
2018-04-10T07:04:56.422Z,20.40
2018-04-10T07:05:58.911Z,20.40
2018-04-10T07:07:01.455Z,20.40
2018-04-10T07:08:03.979Z,20.40
2018-04-10T07:09:07.371Z,20.40
2018-04-10T07:10:09.880Z,20.40
2018-04-10T07:11:12.389Z,20.50
2018-04-10T07:12:14.891Z,20.50
2018-04-10T07:13:17.463Z,20.50
2018-04-10T07:14:19.931Z,20.50
2018-04-10T07:15:22.442Z,20.50
2018-04-10T07:16:24.956Z,20.50
2018-04-10T07:17:27.466Z,20.60
2018-04-10T07:18:29.991Z,20.60
2018-04-10T07:19:32.542Z,20.60
2018-04-10T07:20:35.849Z,20.60
2018-04-10T07:21:38.364Z,20.60
2018-04-10T07:22:40.870Z,20.60
2018-04-10T07:23:43.407Z,20.60
2018-04-10T07:24:45.926Z,20.70
2018-04-10T07:25:48.418Z,20.80
2018-04-10T07:26:50.929Z,20.80
2018-04-10T07:27:53.449Z,20.80
2018-04-10T07:28:55.958Z,20.90
2018-04-10T07:29:58.470Z,21.00
2018-04-10T07:31:00.989Z,21.00
2018-04-10T07:32:03.494Z,21.00
2018-04-10T07:33:06.030Z,21.10
2018-04-10T07:34:08.596Z,21.10
2018-04-10T07:35:11.877Z,21.10
2018-04-10T07:36:14.365Z,21.10
2018-04-10T07:37:17.465Z,21.10
2018-04-10T07:38:20.006Z,21.20
2018-04-10T07:39:22.536Z,21.20
2018-04-10T07:40:25.924Z,21.20
2018-04-10T07:41:29.206Z,21.20
2018-04-10T07:42:32.463Z,21.20
2018-04-10T07:43:35.742Z,21.30
2018-04-10T07:44:38.357Z,21.30
2018-04-10T07:45:40.867Z,21.30
2018-04-10T07:46:43.376Z,21.30
2018-04-10T07:47:46.646Z,21.30
2018-04-10T07:48:49.910Z,21.30
2018-04-10T07:49:52.519Z,21.30
2018-04-10T07:50:55.082Z,21.30
2018-04-10T07:51:58.357Z,21.40
2018-04-10T07:53:01.671Z,21.20
2018-04-10T07:54:04.174Z,21.40
2018-04-10T07:55:06.695Z,21.40
2018-04-10T07:56:09.250Z,21.40
2018-04-10T07:57:11.762Z,21.40
2018-04-10T07:58:14.280Z,21.40
2018-04-10T07:59:16.850Z,21.40
2018-04-10T08:00:19.522Z,21.40
2018-04-10T08:01:22.026Z,21.50
2018-04-10T08:02:24.564Z,21.50
2018-04-10T08:03:27.118Z,21.50
2018-04-10T08:04:30.399Z,21.50
2018-04-10T08:05:32.892Z,21.50
2018-04-10T08:06:35.400Z,21.50
2018-04-10T08:07:38.685Z,21.60
2018-04-10T08:08:41.974Z,21.60
2018-04-10T08:09:45.257Z,21.60
2018-04-10T08:10:48.529Z,21.60
2018-04-10T08:11:51.038Z,21.60
2018-04-10T08:12:53.601Z,21.60
2018-04-10T08:13:56.128Z,21.60
2018-04-10T08:14:58.724Z,21.70
2018-04-10T08:16:01.226Z,21.70
2018-04-10T08:17:03.742Z,21.70
2018-04-10T08:18:07.026Z,21.70
2018-04-10T08:19:10.289Z,21.70
2018-04-10T08:20:12.834Z,21.70
2018-04-10T08:21:15.333Z,21.80
2018-04-10T08:22:18.644Z,21.70
2018-04-10T08:23:21.157Z,21.80
2018-04-10T08:24:23.680Z,21.80
2018-04-10T08:25:26.226Z,21.80
2018-04-10T08:26:28.758Z,21.80
2018-04-10T08:27:31.298Z,21.80
2018-04-10T08:28:33.837Z,21.80
2018-04-10T08:29:36.400Z,21.80
2018-04-10T08:30:38.957Z,21.90
2018-04-10T08:31:41.467Z,21.80
2018-04-10T08:32:43.993Z,21.90
2018-04-10T08:33:46.564Z,21.90
2018-04-10T08:34:49.119Z,21.90
2018-04-10T08:35:52.498Z,21.90
2018-04-10T08:36:55.782Z,21.90
2018-04-10T08:37:58.301Z,21.90
2018-04-10T08:39:00.821Z,22.00
2018-04-10T08:40:03.342Z,22.00
2018-04-10T08:41:05.855Z,22.00
2018-04-10T08:42:08.391Z,22.00
2018-04-10T08:43:10.915Z,22.00
2018-04-10T08:44:13.454Z,22.00
2018-04-10T08:45:15.962Z,22.00
2018-04-10T08:46:18.506Z,22.00
2018-04-10T08:47:21.016Z,22.00
2018-04-10T08:48:23.519Z,22.00
2018-04-10T08:49:26.038Z,22.00
2018-04-10T08:50:28.591Z,22.10
2018-04-10T08:51:31.922Z,22.10
2018-04-10T08:52:35.207Z,22.10
2018-04-10T08:53:37.734Z,22.10
2018-04-10T08:54:41.781Z,22.10
2018-04-10T08:55:44.306Z,22.10
2018-04-10T08:56:46.812Z,22.10
2018-04-10T08:57:49.332Z,22.10
2018-04-10T08:58:51.842Z,22.10
2018-04-10T08:59:54.358Z,22.10
2018-04-10T09:00:56.985Z,22.20
2018-04-10T09:01:59.547Z,22.20
2018-04-10T09:03:02.105Z,22.20
2018-04-10T09:04:04.638Z,22.20
2018-04-10T09:05:07.921Z,22.20
2018-04-10T09:06:10.433Z,22.20
2018-04-10T09:07:12.935Z,22.30
2018-04-10T09:08:15.437Z,22.20
2018-04-10T09:09:18.715Z,22.30
2018-04-10T09:10:21.993Z,22.30
2018-04-10T09:11:25.267Z,22.30
2018-04-10T09:12:27.854Z,22.30
2018-04-10T09:13:31.122Z,22.30
2018-04-10T09:14:33.648Z,22.30
2018-04-10T09:15:36.236Z,22.30
2018-04-10T09:16:38.758Z,22.30
2018-04-10T09:17:41.276Z,22.40
2018-04-10T09:18:44.554Z,22.40
2018-04-10T09:19:47.176Z,22.40
2018-04-10T09:20:49.698Z,22.40
2018-04-10T09:21:53.711Z,22.40
2018-04-10T09:22:56.983Z,22.50
2018-04-10T09:23:59.578Z,22.50
2018-04-10T09:25:02.082Z,22.50
2018-04-10T09:26:04.615Z,22.50
2018-04-10T09:27:07.893Z,22.60
2018-04-10T09:28:10.466Z,22.50
2018-04-10T09:29:13.026Z,22.60
2018-04-10T09:30:15.550Z,22.60
2018-04-10T09:31:19.606Z,22.60
2018-04-10T09:32:22.122Z,22.60
2018-04-10T09:33:24.638Z,22.70
2018-04-10T09:34:27.150Z,22.70
2018-04-10T09:35:29.672Z,22.70
2018-04-10T09:36:32.511Z,22.80
2018-04-10T09:37:35.798Z,22.80
2018-04-10T09:38:39.099Z,22.80
2018-04-10T09:39:41.682Z,22.80
2018-04-10T09:40:44.228Z,22.80
2018-04-10T09:41:46.751Z,22.80
2018-04-10T09:42:49.282Z,22.80
2018-04-10T09:43:51.850Z,22.90
2018-04-10T09:44:54.394Z,22.80
2018-04-10T09:45:56.934Z,22.90
2018-04-10T09:46:59.536Z,22.90
2018-04-10T09:48:02.049Z,22.90
2018-04-10T09:49:04.658Z,22.90
2018-04-10T09:50:07.167Z,22.90
2018-04-10T09:51:09.685Z,22.90
2018-04-10T09:52:12.965Z,22.90
2018-04-10T09:53:16.235Z,22.90
2018-04-10T09:54:18.759Z,22.90
2018-04-10T09:55:21.412Z,22.90
2018-04-10T09:56:24.181Z,22.90
2018-04-10T09:57:26.728Z,22.90
2018-04-10T09:58:29.242Z,22.90
2018-04-10T09:59:31.885Z,22.90
2018-04-10T10:00:40.122Z,22.90
2018-04-10T10:01:42.630Z,22.90
2018-04-10T10:02:45.149Z,22.90
2018-04-10T10:03:47.647Z,22.90
2018-04-10T10:04:50.940Z,22.90
2018-04-10T10:05:53.473Z,22.90
2018-04-10T10:06:56.024Z,22.90
2018-04-10T10:07:58.576Z,22.90
2018-04-10T10:09:01.100Z,22.90
2018-04-10T10:10:05.058Z,22.90
2018-04-10T10:11:07.589Z,22.90
2018-04-10T10:12:10.143Z,22.90
2018-04-10T10:13:13.406Z,22.90
2018-04-10T10:14:16.698Z,22.80
2018-04-10T10:15:19.970Z,22.80
2018-04-10T10:16:23.266Z,22.70
2018-04-10T10:17:25.826Z,22.70
2018-04-10T10:18:29.123Z,22.70
2018-04-10T10:19:31.632Z,22.70
2018-04-10T10:20:34.134Z,22.70
2018-04-10T10:21:37.415Z,22.60
2018-04-10T10:22:40.682Z,22.70
2018-04-10T10:23:43.195Z,22.60
2018-04-10T10:24:45.739Z,22.70
2018-04-10T10:25:49.018Z,22.70
2018-04-10T10:26:52.285Z,22.70
2018-04-10T10:27:54.803Z,22.70
2018-04-10T10:28:57.315Z,22.70
2018-04-10T10:29:59.839Z,22.70
2018-04-10T10:31:02.358Z,22.80
2018-04-10T10:32:05.633Z,22.80
2018-04-10T10:33:08.142Z,22.80
2018-04-10T10:34:10.648Z,22.80
2018-04-10T10:35:13.149Z,22.90
2018-04-10T10:36:15.691Z,22.90
2018-04-10T10:37:18.198Z,23.00
2018-04-10T10:38:20.889Z,23.00
2018-04-10T10:39:23.405Z,23.10
2018-04-10T10:40:26.695Z,23.10
2018-04-10T10:41:29.986Z,23.20
2018-04-10T10:42:32.513Z,23.20
2018-04-10T10:43:36.554Z,23.20
2018-04-10T10:44:39.122Z,23.20
2018-04-10T10:45:41.653Z,23.20
2018-04-10T10:46:44.151Z,23.30
2018-04-10T10:47:46.706Z,23.20
2018-04-10T10:48:50.001Z,23.20
2018-04-10T10:49:52.570Z,23.20
2018-04-10T10:50:55.106Z,23.30
2018-04-10T10:51:58.531Z,23.30
2018-04-10T10:53:01.043Z,23.20
2018-04-10T10:54:03.562Z,23.20
2018-04-10T10:55:06.058Z,23.10
2018-04-10T10:56:08.568Z,23.10
2018-04-10T10:57:11.852Z,23.10
2018-04-10T10:58:15.117Z,23.10
2018-04-10T10:59:17.658Z,23.10
2018-04-10T11:00:20.190Z,23.10
2018-04-10T11:01:22.721Z,23.10
2018-04-10T11:02:25.270Z,23.20
2018-04-10T11:03:27.789Z,23.10
2018-04-10T11:04:30.302Z,23.10
2018-04-10T11:05:32.813Z,23.10
2018-04-10T11:06:35.374Z,23.10
2018-04-10T11:07:38.639Z,23.20
2018-04-10T11:08:41.937Z,23.10
2018-04-10T11:09:45.202Z,23.20
2018-04-10T11:10:48.475Z,23.20
2018-04-10T11:11:50.993Z,23.20
2018-04-10T11:12:53.539Z,23.20
2018-04-10T11:13:56.827Z,23.20
2018-04-10T11:15:00.104Z,23.20
2018-04-10T11:16:03.369Z,23.30
2018-04-10T11:17:05.881Z,23.30
2018-04-10T11:18:08.393Z,23.30
2018-04-10T11:19:10.994Z,23.40
2018-04-10T11:20:13.484Z,23.40
2018-04-10T11:21:15.981Z,23.40
2018-04-10T11:22:18.588Z,23.50
2018-04-10T11:23:21.099Z,23.60
2018-04-10T11:24:23.603Z,23.70
2018-04-10T11:25:26.942Z,23.90
2018-04-10T11:26:29.473Z,23.90
2018-04-10T11:27:32.033Z,24.00
2018-04-10T11:28:35.295Z,24.20
2018-04-10T11:29:37.810Z,24.20
2018-04-10T11:30:40.310Z,24.30
2018-04-10T11:31:42.808Z,24.40
2018-04-10T11:32:46.106Z,24.60
2018-04-10T11:33:48.639Z,24.60
2018-04-10T11:34:51.157Z,24.60
2018-04-10T11:35:53.654Z,24.70
2018-04-10T11:36:56.154Z,24.80
2018-04-10T11:37:59.434Z,24.90
2018-04-10T11:39:02.722Z,24.90
2018-04-10T11:40:05.243Z,24.90
2018-04-10T11:41:07.747Z,25.00
2018-04-10T11:42:11.041Z,25.10
2018-04-10T11:43:14.318Z,25.20
2018-04-10T11:44:17.602Z,25.30
2018-04-10T11:45:20.866Z,25.50
2018-04-10T11:46:23.370Z,25.40
2018-04-10T11:47:25.868Z,25.60
2018-04-10T11:48:28.384Z,25.70
2018-04-10T11:49:31.683Z,26.00
2018-04-10T11:50:34.190Z,26.00
2018-04-10T11:51:36.743Z,26.10
2018-04-10T11:52:39.270Z,26.20
2018-04-10T11:53:41.856Z,26.30
2018-04-10T11:54:44.392Z,26.40
2018-04-10T11:55:46.922Z,26.50
2018-04-10T11:56:49.436Z,26.60
2018-04-10T11:57:51.983Z,26.70
2018-04-10T11:58:55.240Z,26.90
2018-04-10T11:59:57.775Z,26.80
2018-04-10T12:01:01.180Z,27.00
2018-04-10T12:02:03.715Z,27.00
2018-04-10T12:03:06.254Z,27.10
2018-04-10T12:04:08.791Z,27.20
2018-04-10T12:05:11.312Z,27.20
2018-04-10T12:06:13.814Z,27.30
2018-04-10T12:07:16.459Z,27.40
2018-04-10T12:08:18.964Z,27.40
2018-04-10T12:09:21.513Z,27.50
2018-04-10T12:10:24.055Z,27.50
2018-04-10T12:11:26.861Z,27.60
2018-04-10T12:12:29.423Z,27.70
2018-04-10T12:13:32.030Z,27.70
2018-04-10T12:14:35.322Z,27.70
2018-04-10T12:15:37.846Z,27.70
2018-04-10T12:16:40.520Z,27.70
2018-04-10T12:17:43.131Z,27.70
2018-04-10T12:18:45.655Z,27.80
2018-04-10T12:19:48.216Z,27.80
2018-04-10T12:20:50.715Z,27.80
2018-04-10T12:21:53.970Z,27.90
2018-04-10T12:22:57.251Z,28.00
2018-04-10T12:24:00.692Z,28.00
2018-04-10T12:25:03.287Z,28.00
2018-04-10T12:26:05.810Z,28.10
2018-04-10T12:27:08.379Z,28.00
2018-04-10T12:28:10.934Z,28.10
2018-04-10T12:29:14.233Z,28.10
2018-04-10T12:30:16.777Z,28.10
2018-04-10T12:31:20.049Z,28.30
2018-04-10T12:32:23.321Z,28.40
2018-04-10T12:33:25.839Z,28.30
2018-04-10T12:34:28.360Z,28.30
2018-04-10T12:35:30.890Z,28.30
2018-04-10T12:36:34.021Z,28.30
2018-04-10T12:37:37.335Z,28.20
2018-04-10T12:38:39.950Z,28.20
2018-04-10T12:39:42.682Z,28.10
2018-04-10T12:40:45.188Z,28.20
2018-04-10T12:41:47.685Z,28.10
2018-04-10T12:42:50.211Z,27.80
2018-04-10T12:43:53.543Z,27.50
2018-04-10T12:44:56.039Z,27.50
2018-04-10T12:45:58.564Z,27.40
2018-04-10T12:47:01.069Z,27.30
2018-04-10T12:48:03.577Z,27.30
2018-04-10T12:49:06.891Z,27.40
2018-04-10T12:50:09.426Z,27.40
2018-04-10T12:51:12.772Z,27.60
2018-04-10T12:52:15.310Z,27.60
2018-04-10T12:53:17.904Z,27.70
2018-04-10T12:54:20.414Z,27.80
2018-04-10T12:55:23.725Z,28.00
2018-04-10T12:56:26.296Z,27.90
2018-04-10T12:57:28.800Z,28.00
2018-04-10T12:58:31.321Z,28.00
2018-04-10T12:59:33.822Z,28.00
2018-04-10T13:00:36.321Z,28.00
2018-04-10T13:01:39.630Z,27.90
2018-04-10T13:02:42.132Z,27.90
2018-04-10T13:03:44.730Z,27.70
2018-04-10T13:04:48.021Z,27.30
2018-04-10T13:05:51.331Z,27.00
2018-04-10T13:06:53.852Z,27.00
2018-04-10T13:07:56.381Z,26.80
2018-04-10T13:08:58.886Z,26.60
2018-04-10T13:10:01.429Z,26.40
2018-04-10T13:11:04.002Z,26.20
2018-04-10T13:12:06.632Z,25.90
2018-04-10T13:13:09.127Z,25.80
2018-04-10T13:14:11.765Z,25.60
2018-04-10T13:15:14.269Z,25.40
2018-04-10T13:16:16.902Z,25.30
2018-04-10T13:17:19.511Z,25.20
2018-04-10T13:18:22.041Z,24.90
2018-04-10T13:19:24.553Z,24.80
2018-04-10T13:20:27.063Z,24.60
2018-04-10T13:21:29.653Z,24.50
2018-04-10T13:22:32.161Z,24.40
2018-04-10T13:23:35.454Z,24.30
2018-04-10T13:24:38.769Z,24.30
2018-04-10T13:25:41.279Z,24.30
2018-04-10T13:26:43.816Z,24.20
2018-04-10T13:27:46.474Z,24.20
2018-04-10T13:28:49.015Z,24.10
2018-04-10T13:29:51.542Z,24.00